Terminal Aerodrome Forecast
Issued by NWS

Home | Current Version | Previous Version | Text Only | Print | Product List | Glossary On
Versions: 1 2 3 4 5 6 7 8 9 10 11 12 13 14 15 16 17 18 19 20 21 22 23 24 25 26 27 28 29 30 31 32 33 34 35 36 37 38 39 40 41 42 43 44 45 46
258
FTUS45 KGJT 091138
TAFASE
TAF
KASE 091138Z 0912/1012 VRB03KT 4SM -SN BR SCT020 OVC035
      TEMPO 0912/0916 2SM -SN BR SCT012 OVC020
     FM091700 VRB03KT P6SM VCSH OVC025
     FM092000 33005KT P6SM VCSH BKN035
     FM092200 32006KT P6SM BKN050
     FM100100 18003KT P6SM BKN050
      AMD NOT SKED TIL 091500=

USA.gov is the U.S. government's official web portal to all federal, state and local government web resources and services.